Time;durP1;ratioP1;P1;durP2;ratioP2;P2;SDS_P1;SDS_P2;PMS_P1;PMS_P2;Temp;Humidity;BMP_temperature;BMP_pressure;BME280_temperature;BME280_humidity;BME280_pressure;Samples;Min_cycle;Max_cycle;Signal;HPM_P1;HPM_P2
2023/04/14 00:00:41;;;;;;;3.05;2.30;;;18.10;49.20;;;;;;6286037;22;20146;-83
2023/04/14 00:03:07;;;;;;;3.25;2.25;;;18.10;49.20;;;;;;6339515;22;20127;-84
2023/04/14 00:05:33;;;;;;;3.47;2.30;;;18.10;49.20;;;;;;6311912;22;20154;-84
2023/04/14 00:07:59;;;;;;;5.28;2.35;;;18.10;49.20;;;;;;6312042;22;20475;-84
2023/04/14 00:10:25;;;;;;;3.40;2.30;;;18.00;49.30;;;;;;6311986;22;20132;-84
2023/04/14 00:12:51;;;;;;;3.47;2.25;;;18.00;49.20;;;;;;6285817;22;20171;-84
2023/04/14 00:15:17;;;;;;;2.72;2.20;;;17.90;49.30;;;;;;6286096;22;20151;-84
2023/04/14 00:17:44;;;;;;;3.70;2.17;;;18.00;49.30;;;;;;6286284;22;20656;-84
2023/04/14 00:20:10;;;;;;;4.13;2.47;;;18.00;49.20;;;;;;6311789;22;20184;-83
2023/04/14 00:22:36;;;;;;;3.00;1.95;;;18.00;49.30;;;;;;6286517;22;20190;-84
2023/04/14 00:25:02;;;;;;;2.50;2.25;;;18.10;49.40;;;;;;6339335;22;20590;-84
2023/04/14 00:27:29;;;;;;;5.28;2.95;;;17.90;49.30;;;;;;6339307;22;20505;-84
2023/04/14 00:29:55;;;;;;;3.22;2.30;;;18.00;49.50;;;;;;6312141;22;20138;-83
2023/04/14 00:32:21;;;;;;;4.38;2.10;;;17.90;49.40;;;;;;6311685;22;20166;-84
2023/04/14 00:34:47;;;;;;;4.50;2.20;;;18.00;49.50;;;;;;6311844;22;20135;-84
2023/04/14 00:37:13;;;;;;;2.88;2.40;;;18.00;49.50;;;;;;6285838;22;20152;-83
2023/04/14 00:39:39;;;;;;;4.20;2.40;;;18.00;49.40;;;;;;6311492;22;20515;-84
2023/04/14 00:42:05;;;;;;;3.65;2.20;;;17.90;49.40;;;;;;6311933;22;20151;-84
2023/04/14 00:44:31;;;;;;;5.07;2.47;;;18.00;49.40;;;;;;6339463;22;20582;-83
2023/04/14 00:46:58;;;;;;;3.17;2.25;;;18.00;49.50;;;;;;6339231;22;20142;-84
2023/04/14 00:49:24;;;;;;;2.78;2.38;;;18.00;49.60;;;;;;6339413;22;20136;-84
2023/04/14 00:51:49;;;;;;;3.47;2.30;;;18.00;49.60;;;;;;6339038;22;20173;-84
2023/04/14 00:54:17;;;;;;;3.35;2.20;;;17.90;49.50;;;;;;6339646;22;20159;-84
2023/04/14 00:56:44;;;;;;;3.08;2.20;;;18.00;49.60;;;;;;6311759;22;20583;-84
2023/04/14 00:59:10;;;;;;;3.55;2.40;;;18.00;49.50;;;;;;6311590;22;20635;-84
2023/04/14 01:01:36;;;;;;;2.80;2.20;;;18.00;49.60;;;;;;6339172;22;20124;-84
2023/04/14 01:04:02;;;;;;;3.75;2.22;;;18.00;49.70;;;;;;6285789;22;20179;-84
2023/04/14 01:06:29;;;;;;;3.95;2.40;;;18.00;49.60;;;;;;6339392;22;20636;-84
2023/04/14 01:08:55;;;;;;;3.38;2.45;;;18.00;49.60;;;;;;6311724;22;20200;-84
2023/04/14 01:11:44;;;;;;;2.30;2.08;;;18.00;49.70;;;;;;6311640;22;20127;-84
2023/04/14 01:14:17;;;;;;;4.85;2.55;;;18.00;49.80;;;;;;6311400;22;20195;-83
2023/04/14 01:16:44;;;;;;;3.08;2.30;;;18.00;49.70;;;;;;6313120;22;20159;-83
2023/04/14 01:19:33;;;;;;;3.17;1.98;;;17.90;49.60;;;;;;6311672;22;20131;-83
2023/04/14 01:22:02;;;;;;;3.25;2.13;;;18.00;49.60;;;;;;6312021;22;20146;-83
2023/04/14 01:24:59;;;;;;;3.35;2.30;;;17.90;49.70;;;;;;6311499;22;20497;-83
2023/04/14 01:27:35;;;;;;;2.78;2.42;;;17.90;49.80;;;;;;6311438;22;20143;-83
2023/04/14 01:30:29;;;;;;;4.03;2.25;;;17.90;49.80;;;;;;6311437;22;20150;-83
2023/04/14 01:33:02;;;;;;;2.97;2.40;;;17.90;49.80;;;;;;6291662;22;20238;-84
2023/04/14 01:35:45;;;;;;;2.97;2.28;;;17.90;49.80;;;;;;6235785;22;20143;-84
2023/04/14 01:38:21;;;;;;;3.88;2.22;;;18.00;49.90;;;;;;6234655;22;20151;-84
2023/04/14 01:40:51;;;;;;;3.10;2.38;;;17.90;49.90;;;;;;6210898;22;20230;-84
2023/04/14 01:43:23;;;;;;;2.55;2.30;;;17.90;49.80;;;;;;6259865;22;20531;-84
2023/04/14 01:45:55;;;;;;;2.55;2.10;;;17.90;49.80;;;;;;6235396;22;20158;-84
2023/04/14 01:48:25;;;;;;;4.30;2.40;;;17.90;49.90;;;;;;6235753;22;20230;-84
2023/04/14 01:50:55;;;;;;;3.00;2.28;;;17.90;49.90;;;;;;6209297;22;20617;-84
2023/04/14 01:53:24;;;;;;;3.10;2.42;;;17.90;49.80;;;;;;6235477;22;20621;-84
2023/04/14 01:55:53;;;;;;;2.88;2.58;;;17.90;49.90;;;;;;6236273;22;20163;-84
2023/04/14 01:58:23;;;;;;;2.60;2.15;;;17.90;49.80;;;;;;6235809;22;20151;-83
2023/04/14 02:00:52;;;;;;;2.95;2.08;;;17.90;49.70;;;;;;6261389;22;20155;-84
2023/04/14 02:03:21;;;;;;;4.80;2.50;;;18.00;50.00;;;;;;6261451;22;20161;-84
2023/04/14 02:05:50;;;;;;;2.80;2.20;;;17.90;49.80;;;;;;6210840;22;20587;-83
2023/04/14 02:08:19;;;;;;;3.28;2.28;;;17.90;49.90;;;;;;6260981;22;20230;-84
2023/04/14 02:10:48;;;;;;;2.80;2.35;;;17.90;49.90;;;;;;6210386;22;20155;-84
2023/04/14 02:13:14;;;;;;;2.80;2.20;;;17.90;49.90;;;;;;6230021;22;20195;-84
2023/04/14 02:15:42;;;;;;;2.28;2.08;;;17.90;50.00;;;;;;6282139;22;20269;-84
2023/04/14 02:18:10;;;;;;;2.88;2.35;;;17.90;50.10;;;;;;6230786;22;20148;-84
2023/04/14 02:20:42;;;;;;;4.32;2.13;;;17.90;49.90;;;;;;6230823;22;20209;-84
2023/04/14 02:23:10;;;;;;;3.17;2.22;;;17.90;50.00;;;;;;6231824;22;20158;-84
2023/04/14 02:25:39;;;;;;;4.30;2.53;;;17.80;50.00;;;;;;6255905;22;20152;-84
2023/04/14 02:28:13;;;;;;;3.30;2.50;;;17.90;50.20;;;;;;6256393;22;20215;-84
2023/04/14 02:30:41;;;;;;;3.95;2.40;;;17.90;50.10;;;;;;6233094;22;20655;-84
2023/04/14 02:33:11;;;;;;;2.75;2.40;;;17.90;50.30;;;;;;6230344;22;20179;-84
2023/04/14 02:35:43;;;;;;;3.60;2.35;;;17.90;50.00;;;;;;6205642;22;20155;-84
2023/04/14 02:38:22;;;;;;;3.65;2.00;;;17.90;50.10;;;;;;6206538;22;20227;-84
2023/04/14 02:40:52;;;;;;;3.85;2.20;;;17.80;50.30;;;;;;6235353;22;20567;-84
2023/04/14 02:43:24;;;;;;;3.88;2.30;;;17.90;50.10;;;;;;6230427;22;20194;-84
2023/04/14 02:45:51;;;;;;;2.95;2.60;;;17.90;50.20;;;;;;6257039;22;20160;-83
2023/04/14 02:48:20;;;;;;;4.20;2.40;;;17.90;50.30;;;;;;6230354;22;20231;-84
2023/04/14 02:50:49;;;;;;;3.33;2.63;;;17.80;50.20;;;;;;6205432;22;20151;-84
2023/04/14 02:53:19;;;;;;;2.75;2.38;;;17.80;50.20;;;;;;6231189;22;20186;-84
2023/04/14 02:55:46;;;;;;;3.90;2.40;;;17.80;50.30;;;;;;6230843;22;20154;-84
2023/04/14 02:58:13;;;;;;;5.13;2.30;;;17.70;50.20;;;;;;6230535;22;20226;-83
2023/04/14 03:00:41;;;;;;;2.80;2.20;;;17.80;50.30;;;;;;6229841;22;20152;-84
2023/04/14 03:03:08;;;;;;;3.58;2.40;;;17.80;50.20;;;;;;6230195;22;20152;-84
2023/04/14 03:05:36;;;;;;;2.85;2.20;;;17.80;50.50;;;;;;6204709;22;20243;-84
2023/04/14 03:08:03;;;;;;;2.55;2.30;;;17.80;50.30;;;;;;6204672;22;20155;-84
2023/04/14 03:10:29;;;;;;;3.58;2.10;;;17.80;50.20;;;;;;6229631;22;20229;-85
2023/04/14 03:12:55;;;;;;;3.30;2.40;;;17.80;50.20;;;;;;6231591;22;20190;-84
2023/04/14 03:15:22;;;;;;;3.60;2.50;;;17.80;50.40;;;;;;6286869;22;20147;-83
2023/04/14 03:17:52;;;;;;;4.72;2.17;;;17.80;50.20;;;;;;6260702;22;20658;-84
2023/04/14 03:20:20;;;;;;;2.97;2.30;;;17.80;50.40;;;;;;6213295;22;20212;-84
2023/04/14 03:22:49;;;;;;;2.60;2.17;;;17.80;50.40;;;;;;6236596;22;20608;-84
2023/04/14 03:25:16;;;;;;;3.20;2.35;;;17.70;50.50;;;;;;6235347;22;20159;-83
2023/04/14 03:27:42;;;;;;;3.65;2.60;;;17.80;50.50;;;;;;6312274;22;20490;-84
2023/04/14 03:30:09;;;;;;;2.42;2.22;;;17.80;50.40;;;;;;6312317;22;20139;-84
2023/04/14 03:32:40;;;;;;;2.85;2.05;;;17.70;50.30;;;;;;6312646;22;20175;-84
2023/04/14 03:35:07;;;;;;;4.45;2.33;;;17.80;50.40;;;;;;6312882;22;20124;-84
2023/04/14 03:37:35;;;;;;;3.10;2.40;;;17.80;50.50;;;;;;6339726;22;20563;-84
2023/04/14 03:40:04;;;;;;;3.22;2.17;;;17.80;50.50;;;;;;6312548;22;20158;-83
2023/04/14 03:42:30;;;;;;;4.15;2.55;;;17.80;50.60;;;;;;6340006;22;20184;-84
2023/04/14 03:44:57;;;;;;;3.88;2.30;;;17.80;50.50;;;;;;6287074;22;20230;-85
2023/04/14 03:47:25;;;;;;;3.33;2.10;;;17.70;50.40;;;;;;6312380;22;20135;-84
2023/04/14 03:49:53;;;;;;;3.70;2.45;;;17.80;50.60;;;;;;6286748;22;20147;-84
2023/04/14 03:52:19;;;;;;;3.60;2.65;;;17.80;50.50;;;;;;6286868;22;20281;-83
2023/04/14 03:54:50;;;;;;;3.63;2.22;;;17.70;50.50;;;;;;6312258;22;20151;-83
2023/04/14 03:57:16;;;;;;;2.92;2.03;;;17.70;51.30;;;;;;6260953;22;20476;-84
2023/04/14 03:59:42;;;;;;;2.90;2.38;;;17.80;50.50;;;;;;6312185;22;20128;-83
2023/04/14 04:02:08;;;;;;;3.03;2.33;;;17.70;50.40;;;;;;6311982;22;20140;-83
2023/04/14 04:04:35;;;;;;;3.22;2.22;;;17.80;50.50;;;;;;6339650;22;20132;-84
2023/04/14 04:07:01;;;;;;;2.83;2.30;;;17.80;50.50;;;;;;6312385;22;20148;-84
2023/04/14 04:09:28;;;;;;;2.70;2.20;;;17.80;50.50;;;;;;6312019;22;20131;-84
2023/04/14 04:11:57;;;;;;;2.67;2.33;;;17.80;50.60;;;;;;6312217;22;20498;-83
2023/04/14 04:14:23;;;;;;;2.95;2.50;;;17.80;50.60;;;;;;6312335;22;20206;-83
2023/04/14 04:16:49;;;;;;;3.35;2.47;;;17.70;50.70;;;;;;6339317;22;20131;-83
2023/04/14 04:19:17;;;;;;;2.45;1.80;;;17.70;50.60;;;;;;6312213;22;20128;-83
2023/04/14 04:21:44;;;;;;;3.08;2.47;;;17.70;50.60;;;;;;6339358;22;20131;-83
2023/04/14 04:24:10;;;;;;;2.53;2.13;;;17.70;50.80;;;;;;6311729;22;20451;-83
2023/04/14 04:26:36;;;;;;;3.30;2.13;;;17.70;50.90;;;;;;6286656;22;20143;-83
2023/04/14 04:29:02;;;;;;;3.00;2.20;;;17.70;50.60;;;;;;6339764;22;20128;-83
2023/04/14 04:31:28;;;;;;;2.60;2.20;;;17.70;50.50;;;;;;6285950;22;20218;-84
2023/04/14 04:33:56;;;;;;;3.55;2.50;;;17.70;50.60;;;;;;6311980;22;20123;-84
2023/04/14 04:36:22;;;;;;;3.47;2.30;;;17.70;50.80;;;;;;6311726;22;20268;-84
2023/04/14 04:38:49;;;;;;;3.17;2.25;;;17.80;50.70;;;;;;6339707;22;20155;-84
2023/04/14 04:41:29;;;;;;;3.70;2.33;;;17.70;50.70;;;;;;6311975;22;20135;-84
2023/04/14 04:43:55;;;;;;;3.55;2.15;;;17.70;50.60;;;;;;6311499;22;20171;-83
2023/04/14 04:46:42;;;;;;;2.85;2.40;;;17.70;50.70;;;;;;6311597;22;20138;-84
2023/04/14 04:49:09;;;;;;;2.50;2.22;;;17.70;50.80;;;;;;6312025;22;20140;-84
2023/04/14 04:51:34;;;;;;;3.25;2.38;;;17.70;50.80;;;;;;6285829;22;20197;-84
2023/04/14 04:54:01;;;;;;;3.20;2.17;;;17.70;50.80;;;;;;6311469;22;20136;-84
2023/04/14 04:56:26;;;;;;;2.90;2.40;;;17.70;50.80;;;;;;6312380;22;20147;-83
2023/04/14 04:58:52;;;;;;;2.60;2.40;;;17.70;50.70;;;;;;6339024;22;20566;-83
2023/04/14 05:01:18;;;;;;;2.65;2.20;;;17.70;50.80;;;;;;6286033;22;20147;-83
2023/04/14 05:03:45;;;;;;;2.28;2.05;;;17.70;50.70;;;;;;6311335;22;20463;-83
2023/04/14 05:06:11;;;;;;;2.20;2.00;;;17.70;50.70;;;;;;6311932;22;20490;-83
2023/04/14 05:08:37;;;;;;;2.90;2.30;;;17.80;50.80;;;;;;6339987;22;20148;-84
2023/04/14 05:11:04;;;;;;;3.42;2.45;;;17.70;50.70;;;;;;6339272;22;20131;-84
2023/04/14 05:13:30;;;;;;;2.83;2.17;;;17.70;50.80;;;;;;6311311;22;20544;-83
2023/04/14 05:16:10;;;;;;;3.13;2.50;;;17.70;50.70;;;;;;6263124;22;20143;-84
2023/04/14 05:18:36;;;;;;;2.58;2.15;;;17.70;50.80;;;;;;6314336;22;20624;-83
2023/04/14 05:21:07;;;;;;;3.55;2.25;;;17.70;50.80;;;;;;6289576;22;20152;-83
2023/04/14 05:23:33;;;;;;;3.00;2.20;;;17.70;50.70;;;;;;6237067;22;20242;-83
2023/04/14 05:25:59;;;;;;;3.13;2.20;;;17.70;50.80;;;;;;6311627;22;20134;-84
2023/04/14 05:28:26;;;;;;;4.25;2.20;;;17.80;51.10;;;;;;6313820;22;20134;-83
2023/04/14 05:30:52;;;;;;;4.60;2.40;;;17.70;50.70;;;;;;6314572;22;20223;-83
2023/04/14 05:33:18;;;;;;;2.78;2.28;;;17.70;50.80;;;;;;6341261;22;20186;-83
2023/04/14 05:35:44;;;;;;;3.10;2.28;;;17.70;50.90;;;;;;6341031;22;20155;-83
2023/04/14 05:38:11;;;;;;;3.15;2.40;;;17.70;50.90;;;;;;6313479;22;20135;-83
2023/04/14 05:40:37;;;;;;;3.30;2.50;;;17.70;50.80;;;;;;6287503;22;20175;-83
2023/04/14 05:43:03;;;;;;;3.22;2.28;;;17.70;50.90;;;;;;6313940;22;20147;-83
2023/04/14 05:45:29;;;;;;;4.10;2.25;;;17.60;51.00;;;;;;6313240;22;20170;-84
2023/04/14 05:47:54;;;;;;;2.67;2.10;;;17.70;51.00;;;;;;6313751;22;20138;-83
2023/04/14 05:50:21;;;;;;;2.80;2.40;;;17.70;51.10;;;;;;6340705;22;20139;-83
2023/04/14 05:52:48;;;;;;;2.97;2.42;;;17.70;51.00;;;;;;6313443;22;20163;-83
2023/04/14 05:55:14;;;;;;;4.40;2.50;;;17.70;51.00;;;;;;6287789;22;20148;-83
2023/04/14 05:57:40;;;;;;;4.15;2.50;;;17.70;51.00;;;;;;6288345;22;20324;-84
2023/04/14 06:00:07;;;;;;;3.83;2.47;;;17.70;51.00;;;;;;6340601;22;20189;-84
2023/04/14 06:02:32;;;;;;;2.88;2.40;;;17.60;50.90;;;;;;6288148;22;20203;-84
2023/04/14 06:04:58;;;;;;;2.80;2.50;;;17.70;51.00;;;;;;6289535;22;20151;-84
2023/04/14 06:07:24;;;;;;;2.60;2.25;;;17.70;51.10;;;;;;6342873;22;20131;-84
2023/04/14 06:09:50;;;;;;;2.92;2.30;;;17.60;51.20;;;;;;6314389;22;20482;-83
2023/04/14 06:12:16;;;;;;;3.03;2.33;;;17.60;51.20;;;;;;6313650;22;20163;-84
2023/04/14 06:14:42;;;;;;;4.13;2.40;;;17.60;51.20;;;;;;6309363;22;20190;-83
2023/04/14 06:17:08;;;;;;;3.60;2.30;;;17.70;51.20;;;;;;6313771;22;20134;-83
2023/04/14 06:19:34;;;;;;;2.78;2.22;;;17.70;51.20;;;;;;6313462;22;20131;-84
2023/04/14 06:22:00;;;;;;;2.78;2.40;;;17.70;51.10;;;;;;6314583;22;20194;-83
2023/04/14 06:24:32;;;;;;;3.53;2.35;;;17.70;50.90;;;;;;6287667;22;20152;-83
2023/04/14 06:26:58;;;;;;;3.63;2.50;;;17.70;50.80;;;;;;6262408;22;20155;-84
2023/04/14 06:29:29;;;;;;;2.85;2.35;;;17.80;50.90;;;;;;6341237;22;20142;-84
2023/04/14 06:31:56;;;;;;;3.15;2.40;;;17.70;50.80;;;;;;6262119;22;20179;-83
2023/04/14 06:34:23;;;;;;;4.15;2.40;;;17.80;50.90;;;;;;6313179;22;20545;-83
2023/04/14 06:36:49;;;;;;;3.47;2.60;;;17.70;51.10;;;;;;6313218;22;20123;-84
2023/04/14 06:39:20;;;;;;;3.80;2.20;;;17.70;50.90;;;;;;6287532;22;20143;-84
2023/04/14 06:41:50;;;;;;;3.38;2.22;;;17.70;51.10;;;;;;6262748;22;20148;-84
2023/04/14 06:44:16;;;;;;;2.72;2.10;;;17.70;50.70;;;;;;6210512;22;20152;-83
2023/04/14 06:46:42;;;;;;;2.83;2.25;;;17.90;50.50;;;;;;6312754;22;20149;-83
2023/04/14 06:49:08;;;;;;;2.70;2.20;;;17.90;49.90;;;;;;6287790;22;20143;-83
2023/04/14 06:51:34;;;;;;;3.92;2.10;;;18.00;49.90;;;;;;6340240;22;20135;-84
2023/04/14 06:54:00;;;;;;;2.58;2.10;;;18.10;50.20;;;;;;6340376;22;20154;-84
2023/04/14 06:56:30;;;;;;;3.05;2.38;;;18.10;49.90;;;;;;6287436;22;20244;-84
2023/04/14 06:58:56;;;;;;;3.03;2.05;;;18.20;49.50;;;;;;6236335;22;20230;-84
2023/04/14 07:01:22;;;;;;;2.72;2.15;;;18.20;49.50;;;;;;6340537;22;20162;-84
2023/04/14 07:03:48;;;;;;;2.10;1.90;;;18.10;49.60;;;;;;6312579;22;20597;-84
2023/04/14 07:06:16;;;;;;;3.38;2.30;;;18.20;49.60;;;;;;6287455;22;20235;-84
2023/04/14 07:08:42;;;;;;;2.53;1.95;;;18.10;49.80;;;;;;6340455;22;20128;-84
2023/04/14 07:11:09;;;;;;;2.47;1.98;;;18.10;49.60;;;;;;6286817;22;20234;-84
2023/04/14 07:13:35;;;;;;;2.25;1.80;;;18.20;49.60;;;;;;6286198;22;20320;-84
2023/04/14 07:16:02;;;;;;;2.75;1.95;;;18.20;49.40;;;;;;6286938;22;20533;-84
2023/04/14 07:18:29;;;;;;;3.20;2.05;;;18.20;49.60;;;;;;6312958;22;20148;-84
2023/04/14 07:20:54;;;;;;;1.70;1.60;;;18.20;49.60;;;;;;6287449;22;20562;-84
2023/04/14 07:23:21;;;;;;;2.08;1.80;;;18.10;49.40;;;;;;6286921;22;20156;-84
2023/04/14 07:25:52;;;;;;;2.97;1.77;;;18.20;49.60;;;;;;6313322;22;20132;-84
2023/04/14 07:28:18;;;;;;;2.22;1.50;;;18.20;49.50;;;;;;6340458;22;20570;-84
2023/04/14 07:30:45;;;;;;;2.17;1.77;;;18.20;49.60;;;;;;6312342;22;20132;-84
2023/04/14 07:33:11;;;;;;;2.47;1.85;;;18.20;49.50;;;;;;6287038;22;20179;-84
2023/04/14 07:35:37;;;;;;;1.98;1.77;;;18.20;49.60;;;;;;6340149;22;20151;-84
2023/04/14 07:38:03;;;;;;;2.80;1.90;;;18.20;49.80;;;;;;6312844;22;20134;-84
2023/04/14 07:40:29;;;;;;;2.58;1.98;;;18.20;49.60;;;;;;6287011;22;20143;-84
2023/04/14 07:42:56;;;;;;;2.58;1.77;;;18.20;49.50;;;;;;6312782;22;20139;-84
2023/04/14 07:45:22;;;;;;;2.38;1.90;;;18.10;49.50;;;;;;6287014;22;20151;-84
2023/04/14 07:47:50;;;;;;;1.88;1.55;;;18.20;49.60;;;;;;6339830;22;20214;-84
2023/04/14 07:50:17;;;;;;;2.08;1.88;;;18.20;49.80;;;;;;6312214;22;20127;-84
2023/04/14 07:52:43;;;;;;;2.08;1.88;;;18.20;49.60;;;;;;6287190;22;20610;-85
2023/04/14 07:55:09;;;;;;;1.88;1.60;;;18.10;49.90;;;;;;6317547;22;20128;-84
2023/04/14 07:57:35;;;;;;;2.20;1.65;;;18.20;49.60;;;;;;6315986;22;20521;-84
2023/04/14 08:00:01;;;;;;;1.63;1.52;;;18.20;49.80;;;;;;6286913;22;20151;-84
2023/04/14 08:02:27;;;;;;;2.00;1.75;;;18.20;49.60;;;;;;6312671;22;20131;-84
2023/04/14 08:04:53;;;;;;;2.05;1.85;;;18.10;49.60;;;;;;6286882;22;20200;-84
2023/04/14 08:07:19;;;;;;;2.28;1.80;;;18.20;50.20;;;;;;6313579;22;20475;-84
2023/04/14 08:09:45;;;;;;;2.15;1.80;;;18.20;49.90;;;;;;6340338;22;20495;-84
2023/04/14 08:12:11;;;;;;;1.70;1.60;;;18.10;49.80;;;;;;6312510;22;20167;-85
2023/04/14 08:14:37;;;;;;;1.52;1.42;;;18.10;49.60;;;;;;6286096;22;20198;-84
2023/04/14 08:17:03;;;;;;;1.75;1.60;;;18.20;49.80;;;;;;6286303;22;20650;-84
2023/04/14 08:19:30;;;;;;;1.50;1.40;;;18.20;49.80;;;;;;6339530;22;20166;-85
2023/04/14 08:21:56;;;;;;;2.30;1.80;;;18.10;49.50;;;;;;6287120;22;20143;-84
2023/04/14 08:24:22;;;;;;;1.83;1.50;;;18.20;49.60;;;;;;6312404;22;20180;-84
2023/04/14 08:26:48;;;;;;;1.42;1.33;;;18.10;49.80;;;;;;6286295;22;20170;-84
2023/04/14 08:29:14;;;;;;;2.08;1.55;;;18.20;49.30;;;;;;6339458;22;20628;-84
2023/04/14 08:31:40;;;;;;;1.60;1.50;;;18.20;49.60;;;;;;6339641;22;20202;-84
2023/04/14 08:34:06;;;;;;;1.58;1.40;;;18.20;49.50;;;;;;6312211;22;20169;-83
2023/04/14 08:36:32;;;;;;;1.75;1.60;;;18.20;49.30;;;;;;6287277;22;20144;-83
2023/04/14 08:38:59;;;;;;;2.20;1.52;;;18.20;49.50;;;;;;6312572;22;20195;-84
2023/04/14 08:41:31;;;;;;;1.52;1.42;;;18.20;49.50;;;;;;6286385;22;20150;-83
2023/04/14 08:43:56;;;;;;;1.75;1.40;;;18.20;49.50;;;;;;6236227;22;20234;-83
2023/04/14 08:46:23;;;;;;;2.10;1.63;;;18.20;49.60;;;;;;6340734;22;20132;-84
2023/04/14 08:48:49;;;;;;;1.67;1.58;;;18.20;49.70;;;;;;6312335;22;20131;-84
2023/04/14 08:51:37;;;;;;;2.13;1.67;;;18.20;49.70;;;;;;6339517;22;20159;-83
2023/04/14 08:54:07;;;;;;;2.03;1.67;;;18.20;49.80;;;;;;6312315;22;20139;-83
2023/04/14 08:56:35;;;;;;;1.40;1.30;;;18.20;49.70;;;;;;6285967;22;20559;-83
2023/04/14 08:59:01;;;;;;;2.13;1.55;;;18.20;49.80;;;;;;6339328;22;20562;-83
2023/04/14 09:01:28;;;;;;;1.70;1.45;;;18.20;50.00;;;;;;6285800;22;20590;-84
2023/04/14 09:03:55;;;;;;;1.85;1.50;;;18.20;49.90;;;;;;6287183;22;20230;-83
2023/04/14 09:06:21;;;;;;;1.75;1.27;;;18.20;49.60;;;;;;6311867;22;20214;-83
2023/04/14 09:08:47;;;;;;;1.50;1.40;;;18.20;49.70;;;;;;6311787;22;20146;-84
2023/04/14 09:11:14;;;;;;;1.52;1.35;;;18.20;49.60;;;;;;6311899;22;20131;-83
2023/04/14 09:13:40;;;;;;;1.92;1.52;;;18.30;49.60;;;;;;6311432;22;20195;-84
2023/04/14 09:16:06;;;;;;;2.08;1.58;;;18.20;49.50;;;;;;6260472;22;20150;-84
2023/04/14 09:18:33;;;;;;;1.38;1.27;;;18.20;49.40;;;;;;6339031;22;20152;-83
2023/04/14 09:20:59;;;;;;;1.50;1.30;;;18.30;49.70;;;;;;6285500;22;20636;-84
2023/04/14 09:23:25;;;;;;;2.53;1.27;;;18.30;49.70;;;;;;6285987;22;20151;-83
2023/04/14 09:25:51;;;;;;;1.88;1.25;;;18.30;49.70;;;;;;6339294;22;20139;-83
2023/04/14 09:28:17;;;;;;;1.90;1.75;;;18.30;49.60;;;;;;6311424;22;20151;-84
2023/04/14 09:30:43;;;;;;;1.52;1.20;;;18.30;49.40;;;;;;6285430;22;20591;-83
2023/04/14 09:33:19;;;;;;;1.52;1.30;;;18.20;49.30;;;;;;6311096;22;20166;-84
2023/04/14 09:35:47;;;;;;;1.40;1.30;;;18.30;49.40;;;;;;6286054;22;20151;-84
2023/04/14 09:38:14;;;;;;;1.30;1.20;;;18.30;49.20;;;;;;6312594;22;20155;-84
2023/04/14 09:40:42;;;;;;;1.23;1.13;;;18.30;49.60;;;;;;6289908;22;20474;-84
2023/04/14 09:43:09;;;;;;;1.83;1.35;;;18.20;49.80;;;;;;6316569;22;20138;-84
2023/04/14 09:45:43;;;;;;;2.40;1.30;;;18.20;50.00;;;;;;6313950;22;20559;-83
2023/04/14 09:48:11;;;;;;;1.20;1.10;;;18.20;50.00;;;;;;6313348;22;20147;-84
2023/04/14 09:50:56;;;;;;;1.33;1.13;;;18.10;49.90;;;;;;6313534;22;20211;-84
2023/04/14 09:53:31;;;;;;;1.35;1.20;;;18.30;49.80;;;;;;6289108;22;20185;-84
2023/04/14 09:56:01;;;;;;;1.27;1.10;;;18.20;50.50;;;;;;6312357;22;20581;-84
2023/04/14 09:58:29;;;;;;;1.88;1.45;;;18.20;49.80;;;;;;6286280;22;20147;-86
2023/04/14 10:00:56;;;;;;;1.55;1.38;;;18.20;50.20;;;;;;6314596;22;20131;-84
2023/04/14 10:03:38;;;;;;;1.70;1.30;;;18.20;50.00;;;;;;6286458;22;20151;-83
2023/04/14 10:06:06;;;;;;;2.13;1.30;;;18.20;50.10;;;;;;6311267;22;20277;-84
2023/04/14 10:08:36;;;;;;;1.63;1.20;;;18.10;49.80;;;;;;6311410;22;20571;-83
2023/04/14 10:11:20;;;;;;;1.40;1.17;;;18.20;50.00;;;;;;6339239;22;20469;-84
2023/04/14 10:13:46;;;;;;;1.83;1.33;;;18.20;50.10;;;;;;6312334;22;20265;-84
2023/04/14 10:16:13;;;;;;;1.25;1.10;;;18.10;50.00;;;;;;6313867;22;20632;-83
2023/04/14 10:18:39;;;;;;;1.45;1.35;;;18.10;50.10;;;;;;6313625;22;20128;-84
2023/04/14 10:21:05;;;;;;;1.95;1.40;;;18.20;50.00;;;;;;6314114;22;20207;-83
2023/04/14 10:23:32;;;;;;;1.70;1.15;;;18.20;49.90;;;;;;6287615;22;20151;-83
2023/04/14 10:25:58;;;;;;;2.65;1.30;;;18.20;49.70;;;;;;6313319;22;20161;-84
2023/04/14 10:28:24;;;;;;;1.25;1.15;;;18.30;49.90;;;;;;6341106;22;20128;-84
2023/04/14 10:30:50;;;;;;;1.52;1.35;;;18.20;50.00;;;;;;6313248;22;20152;-83
2023/04/14 10:33:16;;;;;;;1.75;1.20;;;18.20;50.10;;;;;;6313323;22;20171;-84
2023/04/14 10:35:43;;;;;;;1.08;1.00;;;18.20;49.90;;;;;;6340464;22;20135;-83
2023/04/14 10:38:09;;;;;;;1.40;1.30;;;18.20;50.00;;;;;;6287379;22;20578;-84
2023/04/14 10:40:55;;;;;;;1.35;1.25;;;18.30;50.00;;;;;;6313054;22;20128;-84
2023/04/14 10:43:21;;;;;;;1.20;1.10;;;18.30;49.70;;;;;;6312686;22;20552;-83
2023/04/14 10:45:57;;;;;;;1.27;1.17;;;18.30;49.70;;;;;;6340297;22;20593;-84
2023/04/14 10:48:27;;;;;;;1.40;1.20;;;18.30;49.60;;;;;;6340794;22;20131;-84
2023/04/14 10:50:58;;;;;;;2.58;1.00;;;18.30;50.10;;;;;;6313262;22;20143;-83
2023/04/14 10:53:25;;;;;;;1.27;1.17;;;18.20;49.50;;;;;;6287567;22;20175;-83
2023/04/14 10:55:53;;;;;;;1.10;1.00;;;18.30;49.40;;;;;;6287498;22;20148;-84
2023/04/14 10:58:20;;;;;;;1.70;1.52;;;18.30;49.70;;;;;;6313001;22;20581;-83
2023/04/14 11:00:46;;;;;;;1.58;1.20;;;18.30;49.90;;;;;;6288060;22;20166;-83
2023/04/14 11:03:15;;;;;;;1.20;1.10;;;18.20;49.50;;;;;;6314994;22;20139;-83
2023/04/14 11:05:48;;;;;;;1.33;1.13;;;18.20;50.50;;;;;;6314596;22;20630;-83
2023/04/14 11:08:32;;;;;;;1.20;1.10;;;18.30;49.50;;;;;;6315490;22;20128;-83
2023/04/14 11:11:01;;;;;;;1.45;1.10;;;18.30;49.60;;;;;;6343491;22;20162;-83
2023/04/14 11:13:27;;;;;;;1.23;1.10;;;18.20;50.00;;;;;;6289626;22;20523;-85
2023/04/14 11:16:01;;;;;;;1.30;1.20;;;18.20;49.90;;;;;;6315397;22;20566;-83
2023/04/14 11:18:32;;;;;;;1.20;1.10;;;18.20;49.70;;;;;;6342576;22;20218;-83
2023/04/14 11:21:06;;;;;;;1.35;1.20;;;18.20;49.80;;;;;;6313861;22;20132;-84
2023/04/14 11:23:33;;;;;;;1.38;1.10;;;18.20;49.70;;;;;;6314633;22;20135;-83
2023/04/14 11:25:59;;;;;;;1.35;1.10;;;18.20;49.90;;;;;;6340024;22;20131;-83
2023/04/14 11:28:30;;;;;;;1.52;1.10;;;18.20;49.40;;;;;;6313530;22;20132;-84
2023/04/14 11:30:57;;;;;;;1.27;1.10;;;18.20;49.40;;;;;;6340389;22;20132;-84
2023/04/14 11:33:25;;;;;;;1.23;1.08;;;18.20;49.50;;;;;;6339966;22;20159;-83
2023/04/14 11:35:52;;;;;;;1.08;0.98;;;18.30;49.60;;;;;;6340550;22;20132;-84
2023/04/14 11:38:18;;;;;;;1.20;1.10;;;18.20;49.40;;;;;;6287189;22;20151;-83
2023/04/14 11:40:48;;;;;;;1.13;0.98;;;18.20;49.30;;;;;;6313216;22;20201;-83
2023/04/14 11:43:14;;;;;;;1.35;1.25;;;18.20;49.40;;;;;;6313644;22;20132;-83
2023/04/14 11:45:42;;;;;;;1.27;1.17;;;18.20;49.40;;;;;;6340256;22;20132;-84
2023/04/14 11:48:09;;;;;;;1.20;1.10;;;18.20;49.30;;;;;;6312531;22;20155;-84
2023/04/14 11:50:37;;;;;;;1.25;1.05;;;18.20;49.60;;;;;;6339746;22;20131;-84
2023/04/14 11:53:17;;;;;;;0.98;0.90;;;18.20;49.50;;;;;;6287552;22;20175;-83
2023/04/14 11:55:48;;;;;;;0.82;0.82;;;18.20;49.40;;;;;;6313072;22;20159;-84
2023/04/14 11:58:15;;;;;;;1.10;1.00;;;18.30;49.20;;;;;;6313551;22;20139;-83
2023/04/14 12:00:42;;;;;;;1.30;1.20;;;18.30;49.40;;;;;;6286783;22;20690;-83
2023/04/14 12:03:08;;;;;;;1.10;1.00;;;18.20;49.30;;;;;;6313351;22;20147;-84
2023/04/14 12:05:34;;;;;;;1.27;1.17;;;18.30;49.20;;;;;;6342270;22;20136;-83
2023/04/14 12:08:03;;;;;;;1.08;1.00;;;18.20;49.50;;;;;;6317113;22;20204;-83
2023/04/14 12:10:30;;;;;;;1.23;1.13;;;18.20;49.50;;;;;;6314228;22;20135;-84
2023/04/14 12:13:01;;;;;;;1.20;1.00;;;18.20;49.40;;;;;;6287179;22;20179;-83
2023/04/14 12:15:35;;;;;;;1.55;1.10;;;18.20;49.40;;;;;;6285956;22;20198;-84
2023/04/14 12:18:02;;;;;;;1.50;1.20;;;18.20;49.20;;;;;;6262924;22;20155;-84
2023/04/14 12:20:29;;;;;;;0.90;0.90;;;18.20;49.20;;;;;;6313386;22;20135;-84
2023/04/14 12:23:02;;;;;;;1.00;1.00;;;18.20;49.20;;;;;;6339582;22;20187;-84
2023/04/14 12:25:31;;;;;;;1.25;0.88;;;18.20;48.80;;;;;;6339539;22;20220;-84
2023/04/14 12:27:58;;;;;;;1.20;1.10;;;18.20;49.20;;;;;;6312300;22;20548;-84
2023/04/14 12:30:25;;;;;;;1.45;1.05;;;18.20;49.40;;;;;;6312280;22;20128;-83
2023/04/14 12:32:51;;;;;;;0.95;0.95;;;18.30;49.50;;;;;;6311995;22;20162;-83
2023/04/14 12:35:22;;;;;;;1.10;1.00;;;18.20;49.50;;;;;;6339276;22;20153;-84
2023/04/14 12:37:48;;;;;;;0.82;0.80;;;18.30;49.60;;;;;;6312509;22;20199;-83
2023/04/14 12:40:15;;;;;;;1.02;0.93;;;18.10;49.80;;;;;;6339797;22;20162;-83
2023/04/14 12:42:47;;;;;;;1.08;0.93;;;18.20;49.60;;;;;;6311959;22;20143;-84
2023/04/14 12:45:13;;;;;;;0.82;0.82;;;18.30;49.60;;;;;;6311075;22;20132;-84
2023/04/14 12:47:39;;;;;;;1.25;1.00;;;18.30;49.80;;;;;;6285730;22;20147;-83
2023/04/14 12:50:22;;;;;;;1.10;1.00;;;18.20;49.80;;;;;;6311306;22;20132;-83
2023/04/14 12:52:48;;;;;;;1.20;1.10;;;18.30;49.60;;;;;;6311890;22;20165;-84